createdAt,value
2023-02-08T00:02:39.605Z,100631.22
2023-02-08T00:08:01.358Z,100625.09
2023-02-08T00:13:23.386Z,100611.31
2023-02-08T00:18:45.070Z,100605.28
2023-02-08T00:24:06.945Z,100588.66
2023-02-08T00:29:28.664Z,100588.88
2023-02-08T00:34:50.454Z,100590.34
2023-02-08T00:40:12.693Z,100586.06
2023-02-08T00:45:34.380Z,100584.41
2023-02-08T00:50:59.046Z,100582.53
2023-02-08T00:56:20.730Z,100586.94
2023-02-08T01:01:42.666Z,100586.88
2023-02-08T01:07:05.370Z,100603.03
2023-02-08T01:12:27.078Z,100607.44
2023-02-08T01:17:54.125Z,100607.22
2023-02-08T01:23:15.835Z,100613.03
2023-02-08T01:28:38.172Z,100601.59
2023-02-08T01:34:00.461Z,100591.59
2023-02-08T01:39:22.168Z,100588.94
2023-02-08T01:45:11.746Z,100583.78
2023-02-08T01:50:42.019Z,100583.00
2023-02-08T01:56:08.342Z,100571.53
2023-02-08T02:01:31.845Z,100573.47
2023-02-08T02:06:57.588Z,100568.28
2023-02-08T02:12:21.107Z,100568.97
2023-02-08T02:17:43.025Z,100564.78
2023-02-08T02:23:23.141Z,100555.19
2023-02-08T02:29:03.779Z,100553.41
2023-02-08T02:34:34.534Z,100536.94
2023-02-08T02:40:03.170Z,100534.13
2023-02-08T02:45:32.498Z,100542.38
2023-02-08T02:51:17.032Z,100537.50
2023-02-08T02:56:46.031Z,100545.13
2023-02-08T03:02:08.850Z,100549.44
2023-02-08T03:07:56.351Z,100549.63
2023-02-08T03:13:47.639Z,100550.16
2023-02-08T03:19:27.545Z,100544.09
2023-02-08T03:24:54.814Z,100548.78
2023-02-08T03:30:34.157Z,100552.81
2023-02-08T03:36:06.464Z,100555.97
2023-02-08T03:41:38.794Z,100548.59
2023-02-08T03:47:15.335Z,100543.34
2023-02-08T03:52:37.652Z,100544.69
2023-02-08T03:58:06.652Z,100548.41
2023-02-08T04:03:30.619Z,100543.16
2023-02-08T04:08:52.871Z,100540.78
2023-02-08T04:14:14.641Z,100545.03
2023-02-08T04:19:36.460Z,100540.16
2023-02-08T04:24:58.183Z,100542.59
2023-02-08T04:30:19.931Z,100544.03
2023-02-08T04:35:42.439Z,100535.19
2023-02-08T04:41:04.340Z,100535.28
2023-02-08T04:46:26.167Z,100535.19
2023-02-08T04:51:47.947Z,100524.06
2023-02-08T04:57:14.035Z,100535.28
2023-02-08T05:02:35.758Z,100517.41
2023-02-08T05:07:57.476Z,100517.06
2023-02-08T05:13:19.178Z,100512.88
2023-02-08T05:18:42.151Z,100512.09
2023-02-08T05:24:03.946Z,100508.03
2023-02-08T05:29:25.859Z,100515.50
2023-02-08T05:34:47.850Z,100513.44
2023-02-08T05:40:10.424Z,100523.88
2023-02-08T05:45:32.222Z,100522.97
2023-02-08T05:50:54.336Z,100528.69
2023-02-08T05:56:16.068Z,100521.19
2023-02-08T06:01:37.793Z,100534.06
2023-02-08T06:06:59.501Z,100532.47
2023-02-08T06:12:21.188Z,100539.09
2023-02-08T06:17:42.909Z,100537.84
2023-02-08T06:23:04.730Z,100534.22
2023-02-08T06:28:26.626Z,100536.19
2023-02-08T06:33:48.369Z,100535.50
2023-02-08T06:39:10.104Z,100544.78
2023-02-08T06:44:31.822Z,100544.94
2023-02-08T06:49:54.044Z,100535.19
2023-02-08T06:55:15.796Z,100539.16
2023-02-08T07:00:39.182Z,100537.28
2023-02-08T07:06:05.727Z,100542.69
2023-02-08T07:11:27.667Z,100549.31
2023-02-08T07:16:49.415Z,100554.84
2023-02-08T07:22:11.195Z,100560.53
2023-02-08T07:27:33.340Z,100565.06
2023-02-08T07:32:55.235Z,100565.72
2023-02-08T07:38:20.624Z,100553.94
2023-02-08T07:43:43.210Z,100556.63
2023-02-08T07:49:04.992Z,100553.53
2023-02-08T07:54:27.229Z,100555.25
2023-02-08T07:59:48.991Z,100556.47
2023-02-08T08:05:11.380Z,100556.00
2023-02-08T08:10:33.124Z,100551.88
2023-02-08T08:15:54.895Z,100552.00
2023-02-08T08:21:16.797Z,100545.97
2023-02-08T08:26:38.590Z,100553.59
2023-02-08T08:32:00.384Z,100554.28
2023-02-08T08:37:22.131Z,100543.63
2023-02-08T08:42:43.917Z,100544.38
2023-02-08T08:48:05.984Z,100542.25
2023-02-08T08:53:27.875Z,100543.09
2023-02-08T08:58:49.683Z,100542.88
2023-02-08T09:04:11.890Z,100542.31
2023-02-08T09:09:33.918Z,100527.63
2023-02-08T09:14:55.623Z,100520.81
2023-02-08T09:20:17.946Z,100520.31
2023-02-08T09:25:40.113Z,100522.75
2023-02-08T09:31:37.673Z,100522.88
2023-02-08T09:36:59.458Z,100519.06
2023-02-08T09:42:31.650Z,100521.63
2023-02-08T09:48:14.488Z,100518.28
2023-02-08T09:53:44.044Z,100511.66
2023-02-08T09:59:12.860Z,100510.91
2023-02-08T10:04:43.410Z,100501.75
2023-02-08T10:10:15.358Z,100499.84
2023-02-08T10:16:13.143Z,100493.41
2023-02-08T10:21:55.814Z,100496.81
2023-02-08T10:27:28.911Z,100490.03
2023-02-08T10:32:59.453Z,100481.63
2023-02-08T10:38:21.128Z,100472.38
2023-02-08T10:43:51.729Z,100460.28
2023-02-08T10:49:35.023Z,100467.38
2023-02-08T10:54:58.560Z,100457.16
2023-02-08T11:00:26.999Z,100451.19
2023-02-08T11:05:49.627Z,100444.44
2023-02-08T11:11:11.576Z,100442.75
2023-02-08T11:16:34.076Z,100429.09
2023-02-08T11:21:57.070Z,100419.72
2023-02-08T11:27:29.495Z,100403.44
2023-02-08T11:33:19.730Z,100394.00
2023-02-08T11:38:42.636Z,100385.41
2023-02-08T11:44:07.132Z,100380.25
2023-02-08T11:49:40.665Z,100364.78
2023-02-08T11:55:38.075Z,100366.53
2023-02-08T12:01:18.658Z,100357.94
2023-02-08T12:06:54.373Z,100354.50
2023-02-08T12:12:42.680Z,100354.47
2023-02-08T12:18:16.732Z,100333.78
2023-02-08T12:23:49.227Z,100336.31
2023-02-08T12:29:45.679Z,100333.63
2023-02-08T12:35:57.599Z,100318.97
2023-02-08T12:41:23.210Z,100312.84
2023-02-08T12:47:06.805Z,100301.56
2023-02-08T12:52:37.684Z,100280.75
2023-02-08T12:58:25.619Z,100272.78
2023-02-08T13:03:57.245Z,100262.38
2023-02-08T13:09:35.707Z,100244.09
2023-02-08T13:15:30.954Z,100243.31
2023-02-08T13:21:05.420Z,100239.03
2023-02-08T13:26:33.266Z,100238.22
2023-02-08T13:32:30.697Z,100219.19
2023-02-08T13:37:59.890Z,100213.22
2023-02-08T13:43:35.612Z,100216.63
2023-02-08T13:49:00.348Z,100223.47
2023-02-08T13:54:23.710Z,100223.34
2023-02-08T14:00:21.480Z,100218.22
2023-02-08T14:05:57.196Z,100226.91
2023-02-08T14:11:37.218Z,100223.47
2023-02-08T14:17:04.733Z,100222.59
2023-02-08T14:22:33.756Z,100224.28
2023-02-08T14:28:02.545Z,100223.34
2023-02-08T14:33:32.027Z,100224.19
2023-02-08T14:39:23.622Z,100222.47
2023-02-08T14:44:48.883Z,100228.59
2023-02-08T14:50:20.447Z,100226.88
2023-02-08T14:55:52.067Z,100214.75
2023-02-08T15:01:18.649Z,100212.34
2023-02-08T15:07:07.534Z,100217.44
2023-02-08T15:12:32.954Z,100227.00
2023-02-08T15:17:55.610Z,100234.81
2023-02-08T15:23:23.570Z,100228.78
2023-02-08T15:28:45.546Z,100228.00
2023-02-08T15:34:11.405Z,100223.72
2023-02-08T15:39:41.458Z,100218.63
2023-02-08T15:45:04.453Z,100223.88
2023-02-08T15:50:27.699Z,100227.34
2023-02-08T15:55:53.727Z,100217.03
2023-02-08T16:01:20.808Z,100232.59
2023-02-08T16:06:53.247Z,100240.44
2023-02-08T16:12:21.675Z,100235.38
2023-02-08T16:17:45.707Z,100238.03
2023-02-08T16:23:31.225Z,100237.19
2023-02-08T16:29:19.000Z,100234.66
2023-02-08T16:34:41.118Z,100241.59
2023-02-08T16:40:06.608Z,100244.19
2023-02-08T16:45:28.392Z,100249.41
2023-02-08T16:50:50.122Z,100250.25
2023-02-08T16:56:11.897Z,100248.56
2023-02-08T17:01:34.001Z,100256.28
2023-02-08T17:06:55.832Z,100266.63
2023-02-08T17:12:22.836Z,100260.59
2023-02-08T17:17:44.835Z,100268.31
2023-02-08T17:23:07.020Z,100280.34
2023-02-08T17:28:28.838Z,100290.66
2023-02-08T17:33:50.602Z,100285.47
2023-02-08T17:39:13.686Z,100288.03
2023-02-08T17:44:35.428Z,100290.63
2023-02-08T17:49:57.498Z,100300.09
2023-02-08T17:55:19.613Z,100295.75
2023-02-08T18:00:41.364Z,100294.03
2023-02-08T18:06:05.940Z,100291.47
2023-02-08T18:11:27.776Z,100301.78
2023-02-08T18:16:49.533Z,100296.59
2023-02-08T18:22:11.271Z,100297.38
2023-02-08T18:27:33.286Z,100296.50
2023-02-08T18:32:55.023Z,100292.22
2023-02-08T18:38:16.789Z,100301.69
2023-02-08T18:43:39.213Z,100300.78
2023-02-08T18:49:00.967Z,100287.84
2023-02-08T18:54:23.029Z,100298.94
2023-02-08T18:59:44.749Z,100292.13
2023-02-08T19:05:06.793Z,100299.88
2023-02-08T19:10:28.515Z,100288.69
2023-02-08T19:15:51.319Z,100286.03
2023-02-08T19:21:15.113Z,100278.28
2023-02-08T19:26:39.877Z,100281.75
2023-02-08T19:32:01.716Z,100273.19
2023-02-08T19:37:23.583Z,100273.91
2023-02-08T19:42:45.973Z,100274.72
2023-02-08T19:48:08.597Z,100279.94
2023-02-08T19:53:30.624Z,100283.31
2023-02-08T19:58:52.465Z,100283.25
2023-02-08T20:04:14.567Z,100276.25
2023-02-08T20:09:37.113Z,100281.38
2023-02-08T20:14:58.929Z,100283.97
2023-02-08T20:20:21.345Z,100279.66
2023-02-08T20:25:43.371Z,100274.44
2023-02-08T20:31:15.472Z,100265.06
2023-02-08T20:36:40.525Z,100256.47
2023-02-08T20:42:02.553Z,100260.72
2023-02-08T20:47:24.487Z,100253.06
2023-02-08T20:52:46.762Z,100252.06
2023-02-08T20:58:08.597Z,100248.47
2023-02-08T21:03:30.298Z,100259.72
2023-02-08T21:08:52.603Z,100252.78
2023-02-08T21:14:20.673Z,100246.78
2023-02-08T21:19:42.631Z,100257.16
2023-02-08T21:25:04.407Z,100255.34
2023-02-08T21:30:26.200Z,100252.63
2023-02-08T21:35:48.043Z,100250.84
2023-02-08T21:41:21.696Z,100245.78
2023-02-08T21:46:43.412Z,100244.88
2023-02-08T21:52:23.745Z,100232.88
2023-02-08T21:57:45.592Z,100233.72
2023-02-08T22:03:07.454Z,100230.34
2023-02-08T22:08:29.176Z,100218.22
2023-02-08T22:13:50.863Z,100227.72
2023-02-08T22:19:12.581Z,100226.84
2023-02-08T22:24:35.408Z,100222.47
2023-02-08T22:29:57.526Z,100226.00
2023-02-08T22:35:19.367Z,100220.56
2023-02-08T22:40:42.391Z,100225.44
2023-02-08T22:46:04.535Z,100219.56
2023-02-08T22:51:26.313Z,100217.06
2023-02-08T22:56:48.023Z,100218.63
2023-02-08T23:02:09.771Z,100208.41
2023-02-08T23:07:31.593Z,100210.16
2023-02-08T23:12:53.303Z,100206.81
2023-02-08T23:18:15.009Z,100198.13
2023-02-08T23:23:36.831Z,100200.66
2023-02-08T23:28:58.678Z,100199.72
2023-02-08T23:34:20.431Z,100207.44
2023-02-08T23:39:42.146Z,100207.19
2023-02-08T23:45:04.490Z,100202.84
2023-02-08T23:50:26.421Z,100207.78
2023-02-08T23:55:48.121Z,100197.41
